Cosco Kaohsiung — VREM3 — position and weather

sailwx.info

Track history (hours):
 
Tides and Currents Weather Stations Pressure Air Temp Water Temp Dewpoint Dewpoint Depression Visibility Wind Speed Wind Dir Waves Ship Positions

Cosco Kaohsiung

Last reported at 2017-May-08 17:03 UTC. Time now 2017-May-26 22:50 UTC.
Position N 01°59' E 102°15'.
Warning: this ship's position is 18 days out of date.

Length 349 m; draft 14.1 m.

Type: Ship (hazmat cat A). MMSI: 477136800.

Date/timePositionNaut miles runAvg speedWind from/ knotsBaromVisibWave heightAir tempDewpointWater temp
2017-May-08 17:03N 01°59' E 102°15'219.5
2017-May-08 16:58N 01°58' E 102°16'919.3
2017-May-08 16:30N 01°53' E 102°23'918.9
2017-May-08 16:01N 01°49' E 102°32'1018.6
2017-May-08 15:30N 01°45' E 102°40'918.1
2017-May-08 14:59N 01°40' E 102°48'1717.6
2017-May-08 14:00N 01°31' E 103°03'2517.1
2017-May-08 12:32N 01°16' E 103°23'217.4
2017-May-08 12:26N 01°15' E 103°24'717.8
2017-May-08 12:00N 01°12' E 103°31'917.3
2017-May-08 11:30N 01°11' E 103°40'612.3
2017-May-08 11:00N 01°09' E 103°46'4 8.8
2017-May-08 10:30N 01°12' E 103°49'4 7.7
2017-May-08 10:00N 01°15' E 103°46'1 1.1
2017-May-08 09:30N 01°15' E 103°47'0 0.0
2017-May-08 09:00N 01°15' E 103°47'0 0.0
2017-May-08 08:30N 01°15' E 103°47'0 0.0
2017-May-08 08:00N 01°15' E 103°47'0 0.0
2017-May-08 07:30N 01°15' E 103°47'0 0.0
2017-May-08 07:00N 01°15' E 103°47'0 0.0
2017-May-08 06:30N 01°15' E 103°47'0 0.0
2017-May-08 06:00N 01°15' E 103°47'0 0.0
2017-May-08 05:30N 01°15' E 103°47'0 0.0
2017-May-08 05:00N 01°15' E 103°47'0 0.0
2017-May-08 04:30N 01°15' E 103°47'0 0.0
2017-May-08 03:54N 01°15' E 103°47'0 0.0
2017-May-08 03:30N 01°15' E 103°47'0 0.0
2017-May-08 03:00N 01°15' E 103°47'0 0.0
2017-May-08 02:30N 01°15' E 103°47'0 0.0
2017-May-08 02:00N 01°15' E 103°47'0 0.0
2017-May-08 01:30N 01°15' E 103°47'0 0.0
2017-May-08 00:57N 01°15' E 103°47'0 0.0
2017-May-08 00:30N 01°15' E 103°47'0 0.0
2017-May-08 00:00N 01°15' E 103°47'0 0.0
2017-May-07 23:30N 01°15' E 103°47'0 0.0
2017-May-07 23:00N 01°15' E 103°47'0 0.0
2017-May-07 22:30N 01°15' E 103°47'0 0.0
2017-May-07 22:00N 01°15' E 103°47'0 0.0
2017-May-07 21:30N 01°15' E 103°47'0 0.0
2017-May-07 21:00N 01°15' E 103°47'0 0.0
2017-May-07 20:30N 01°15' E 103°47'0 0.0
2017-May-07 19:39N 01°15' E 103°47'0 0.0
2017-May-07 19:15N 01°15' E 103°47'0 0.0
2017-May-07 18:57N 01°15' E 103°47'0 0.2
2017-May-07 18:31N 01°15' E 103°47'2 3.1
2017-May-07 18:00N 01°14' E 103°47'4 7.7
2017-May-07 17:30N 01°12' E 103°51'4 7.2
2017-May-07 17:01N 01°14' E 103°54'2 4.6
2017-May-07 16:30N 01°14' E 103°57'4 7.3
2017-May-07 16:00N 01°16' E 104°00'1 2.7
2017-May-07 15:31N 01°16' E 104°01'3 5.6
2017-May-07 14:57N 01°16' E 104°04'  
2017-May-02 08:06N 23°56' E 118°19'114.3
2017-May-02 08:00N 23°57' E 118°20'1116.4
2017-May-02 07:21N 24°04' E 118°28'716.8
2017-May-02 06:55N 24°08' E 118°35'1817.8
2017-May-02 05:55N 24°19' E 118°51'44915.5
2017-May-01 00:59N 30°55' E 122°48'1117.5
2017-May-01 00:23N 31°04' E 122°42'717.5
2017-Apr-30 23:59N 31°05' E 122°34'613.4
2017-Apr-30 23:30N 31°06' E 122°27'1313.1
2017-Apr-30 22:32N 31°10' E 122°12'115.1
2017-Apr-30 22:29N 31°10' E 122°12'713.1
2017-Apr-30 21:59N 31°14' E 122°05'612.0
2017-Apr-30 21:30N 31°15' E 121°59'710.3
2017-Apr-30 20:50N 31°16' E 121°51'411.2
2017-Apr-30 20:30N 31°18' E 121°47'510.1
2017-Apr-30 20:00N 31°20' E 121°41'510.5
2017-Apr-30 19:30N 31°23' E 121°36'1 1.3
2017-Apr-30 18:42N 31°23' E 121°35'0 0.0
2017-Apr-30 18:27N 31°23' E 121°35'0 0.0
2017-Apr-30 15:57N 31°23' E 121°35'0 0.0
2017-Apr-30 15:27N 31°23' E 121°35'0 0.0
2017-Apr-30 14:33N 31°23' E 121°35'0 0.0
2017-Apr-30 11:39N 31°23' E 121°35'0 0.0
2017-Apr-30 11:21N 31°23' E 121°35'0 0.0
2017-Apr-30 10:57N 31°23' E 121°35'0 0.0
2017-Apr-30 10:27N 31°23' E 121°35'0 0.0
2017-Apr-30 09:57N 31°23' E 121°35'0 0.0
2017-Apr-30 09:21N 31°23' E 121°35'0 0.0
2017-Apr-30 08:51N 31°23' E 121°35'0 0.0
2017-Apr-30 07:27N 31°23' E 121°35'0 0.0
2017-Apr-30 06:39N 31°23' E 121°35'0 0.0
2017-Apr-30 06:27N 31°23' E 121°35'0 0.0
2017-Apr-30 05:45N 31°23' E 121°35'0 0.0
2017-Apr-30 05:21N 31°23' E 121°35'0 0.0
2017-Apr-30 01:57N 31°23' E 121°35'0 0.0
2017-Apr-30 01:09N 31°23' E 121°35'0 0.0
2017-Apr-30 00:51N 31°23' E 121°35'0 0.0
2017-Apr-29 23:14N 31°22' E 121°35'0 0.0
2017-Apr-29 22:38N 31°23' E 121°35'0 0.0
2017-Apr-29 20:45N 31°23' E 121°35'0 0.0
2017-Apr-29 20:27N 31°23' E 121°35'0 0.0
2017-Apr-29 19:48N 31°23' E 121°35'0 0.0
2017-Apr-29 19:30N 31°23' E 121°35'0 0.8
2017-Apr-29 19:00N 31°23' E 121°35'0 0.1
2017-Apr-29 18:30N 31°23' E 121°35'1 1.2
2017-Apr-29 17:59N 31°23' E 121°34'2 4.3
2017-Apr-29 17:30N 31°23' E 121°37'5 9.3
2017-Apr-29 17:00N 31°20' E 121°41'510.1
2017-Apr-29 16:30N 31°18' E 121°47'2211.1
2017-Apr-29 14:31N 31°11' E 122°11'710.6
2017-Apr-29 13:50N 31°06' E 122°18'  
Track history (hours):
 
Tides and Currents Weather Stations Pressure Air Temp Water Temp Dewpoint Dewpoint Depression Visibility Wind Speed Wind Dir Waves Ship Positions

Cosco Kaohsiung

Last reported at 2017-May-08 17:03 UTC. Time now 2017-May-26 22:50 UTC.
Position N 01°59' E 102°15'.
Warning: this ship's position is 18 days out of date.

Length 349 m; draft 14.1 m.

Type: Ship (hazmat cat A). MMSI: 477136800.

Date/timePositionNaut miles runAvg speedWind from/ knotsBaromVisibWave heightAir tempDewpointWater temp
2017-May-08 17:03N 01°59' E 102°15'219.5
2017-May-08 16:58N 01°58' E 102°16'919.3
2017-May-08 16:30N 01°53' E 102°23'918.9
2017-May-08 16:01N 01°49' E 102°32'1018.6
2017-May-08 15:30N 01°45' E 102°40'918.1
2017-May-08 14:59N 01°40' E 102°48'1717.6
2017-May-08 14:00N 01°31' E 103°03'2517.1
2017-May-08 12:32N 01°16' E 103°23'217.4
2017-May-08 12:26N 01°15' E 103°24'717.8
2017-May-08 12:00N 01°12' E 103°31'917.3
2017-May-08 11:30N 01°11' E 103°40'612.3
2017-May-08 11:00N 01°09' E 103°46'4 8.8
2017-May-08 10:30N 01°12' E 103°49'4 7.7
2017-May-08 10:00N 01°15' E 103°46'1 1.1
2017-May-08 09:30N 01°15' E 103°47'0 0.0
2017-May-08 09:00N 01°15' E 103°47'0 0.0
2017-May-08 08:30N 01°15' E 103°47'0 0.0
2017-May-08 08:00N 01°15' E 103°47'0 0.0
2017-May-08 07:30N 01°15' E 103°47'0 0.0
2017-May-08 07:00N 01°15' E 103°47'0 0.0
2017-May-08 06:30N 01°15' E 103°47'0 0.0
2017-May-08 06:00N 01°15' E 103°47'0 0.0
2017-May-08 05:30N 01°15' E 103°47'0 0.0
2017-May-08 05:00N 01°15' E 103°47'0 0.0
2017-May-08 04:30N 01°15' E 103°47'0 0.0
2017-May-08 03:54N 01°15' E 103°47'0 0.0
2017-May-08 03:30N 01°15' E 103°47'0 0.0
2017-May-08 03:00N 01°15' E 103°47'0 0.0
2017-May-08 02:30N 01°15' E 103°47'0 0.0
2017-May-08 02:00N 01°15' E 103°47'0 0.0
2017-May-08 01:30N 01°15' E 103°47'0 0.0
2017-May-08 00:57N 01°15' E 103°47'0 0.0
2017-May-08 00:30N 01°15' E 103°47'0 0.0
2017-May-08 00:00N 01°15' E 103°47'0 0.0
2017-May-07 23:30N 01°15' E 103°47'0 0.0
2017-May-07 23:00N 01°15' E 103°47'0 0.0
2017-May-07 22:30N 01°15' E 103°47'0 0.0
2017-May-07 22:00N 01°15' E 103°47'0 0.0
2017-May-07 21:30N 01°15' E 103°47'0 0.0
2017-May-07 21:00N 01°15' E 103°47'0 0.0
2017-May-07 20:30N 01°15' E 103°47'0 0.0
2017-May-07 19:39N 01°15' E 103°47'0 0.0
2017-May-07 19:15N 01°15' E 103°47'0 0.0
2017-May-07 18:57N 01°15' E 103°47'0 0.2
2017-May-07 18:31N 01°15' E 103°47'2 3.1
2017-May-07 18:00N 01°14' E 103°47'4 7.7
2017-May-07 17:30N 01°12' E 103°51'4 7.2
2017-May-07 17:01N 01°14' E 103°54'2 4.6
2017-May-07 16:30N 01°14' E 103°57'4 7.3
2017-May-07 16:00N 01°16' E 104°00'1 2.7
2017-May-07 15:31N 01°16' E 104°01'3 5.6
2017-May-07 14:57N 01°16' E 104°04'  
2017-May-02 08:06N 23°56' E 118°19'114.3
2017-May-02 08:00N 23°57' E 118°20'1116.4
2017-May-02 07:21N 24°04' E 118°28'716.8
2017-May-02 06:55N 24°08' E 118°35'1817.8
2017-May-02 05:55N 24°19' E 118°51'44915.5
2017-May-01 00:59N 30°55' E 122°48'1117.5
2017-May-01 00:23N 31°04' E 122°42'717.5
2017-Apr-30 23:59N 31°05' E 122°34'613.4
2017-Apr-30 23:30N 31°06' E 122°27'1313.1
2017-Apr-30 22:32N 31°10' E 122°12'115.1
2017-Apr-30 22:29N 31°10' E 122°12'713.1
2017-Apr-30 21:59N 31°14' E 122°05'612.0
2017-Apr-30 21:30N 31°15' E 121°59'710.3
2017-Apr-30 20:50N 31°16' E 121°51'411.2
2017-Apr-30 20:30N 31°18' E 121°47'510.1
2017-Apr-30 20:00N 31°20' E 121°41'510.5
2017-Apr-30 19:30N 31°23' E 121°36'1 1.3
2017-Apr-30 18:42N 31°23' E 121°35'0 0.0
2017-Apr-30 18:27N 31°23' E 121°35'0 0.0
2017-Apr-30 15:57N 31°23' E 121°35'0 0.0
2017-Apr-30 15:27N 31°23' E 121°35'0 0.0
2017-Apr-30 14:33N 31°23' E 121°35'0 0.0
2017-Apr-30 11:39N 31°23' E 121°35'0 0.0
2017-Apr-30 11:21N 31°23' E 121°35'0 0.0
2017-Apr-30 10:57N 31°23' E 121°35'0 0.0
2017-Apr-30 10:27N 31°23' E 121°35'0 0.0
2017-Apr-30 09:57N 31°23' E 121°35'0 0.0
2017-Apr-30 09:21N 31°23' E 121°35'0 0.0
2017-Apr-30 08:51N 31°23' E 121°35'0 0.0
2017-Apr-30 07:27N 31°23' E 121°35'0 0.0
2017-Apr-30 06:39N 31°23' E 121°35'0 0.0
2017-Apr-30 06:27N 31°23' E 121°35'0 0.0
2017-Apr-30 05:45N 31°23' E 121°35'0 0.0
2017-Apr-30 05:21N 31°23' E 121°35'0 0.0
2017-Apr-30 01:57N 31°23' E 121°35'0 0.0
2017-Apr-30 01:09N 31°23' E 121°35'0 0.0
2017-Apr-30 00:51N 31°23' E 121°35'0 0.0
2017-Apr-29 23:14N 31°22' E 121°35'0 0.0
2017-Apr-29 22:38N 31°23' E 121°35'0 0.0
2017-Apr-29 20:45N 31°23' E 121°35'0 0.0
2017-Apr-29 20:27N 31°23' E 121°35'0 0.0
2017-Apr-29 19:48N 31°23' E 121°35'0 0.0
2017-Apr-29 19:30N 31°23' E 121°35'0 0.8
2017-Apr-29 19:00N 31°23' E 121°35'0 0.1
2017-Apr-29 18:30N 31°23' E 121°35'1 1.2
2017-Apr-29 17:59N 31°23' E 121°34'2 4.3
2017-Apr-29 17:30N 31°23' E 121°37'5 9.3
2017-Apr-29 17:00N 31°20' E 121°41'510.1
2017-Apr-29 16:30N 31°18' E 121°47'2211.1
2017-Apr-29 14:31N 31°11' E 122°11'710.6
2017-Apr-29 13:50N 31°06' E 122°18'  

Dump ship's entire track history